Terminal Aerodrome Forecast
Issued by NWS Miami, FL

Home | Current Version | Previous Version | Text Only | Print | Product List | Glossary On
Versions: 1 2 3 4 5 6 7 8 9 10 11 12 13 14 15 16 17 18 19 20 21 22 23 24 25 26 27 28 29 30 31 32 33
000
FTUS42 KMFL 241359 AAC
TAFFLL
TAF AMD
KFLL 241359Z 2414/2512 29006KT P6SM FEW008 SCT020
      TEMPO 2414/2415 5SM BR BKN005 BKN020
     FM241500 34008KT P6SM SCT025
     FM241700 04008KT P6SM SCT035
     FM250000 VRB04KT P6SM SCT250
     FM250600 VRB02KT 6SM BR SCT005=

USA.gov is the U.S. government's official web portal to all federal, state and local government web resources and services.